createdAt,value
2019-03-21T00:01:08.865Z,14.70
2019-03-21T00:03:40.418Z,14.07
2019-03-21T00:06:13.559Z,14.20
2019-03-21T00:08:45.336Z,13.80
2019-03-21T00:11:51.826Z,13.90
2019-03-21T00:14:45.325Z,13.87
2019-03-21T00:17:18.043Z,15.47
2019-03-21T00:19:49.557Z,14.20
2019-03-21T00:22:21.102Z,14.13
2019-03-21T00:24:54.092Z,15.37
2019-03-21T00:27:25.565Z,15.70
2019-03-21T00:29:57.059Z,16.07
2019-03-21T00:32:29.732Z,15.70
2019-03-21T00:35:04.331Z,17.00
2019-03-21T00:37:35.829Z,15.83
2019-03-21T00:40:09.786Z,16.10
2019-03-21T00:42:41.295Z,17.70
2019-03-21T00:45:14.800Z,17.57
2019-03-21T00:47:46.647Z,15.87
2019-03-21T00:50:19.377Z,17.80
2019-03-21T00:52:52.465Z,16.07
2019-03-21T00:55:24.457Z,15.80
2019-03-21T00:57:58.539Z,15.80
2019-03-21T01:00:32.637Z,17.13
2019-03-21T01:03:04.356Z,15.70
2019-03-21T01:05:35.861Z,15.63
2019-03-21T01:08:07.414Z,14.43
2019-03-21T01:10:38.900Z,14.60
2019-03-21T01:13:10.313Z,15.30
2019-03-21T01:15:41.894Z,15.03
2019-03-21T01:18:13.525Z,14.47
2019-03-21T01:20:45.123Z,13.83
2019-03-21T01:23:16.547Z,14.07
2019-03-21T01:25:50.157Z,14.70
2019-03-21T01:28:22.209Z,14.47
2019-03-21T01:30:53.799Z,14.40
2019-03-21T01:33:25.391Z,13.53
2019-03-21T01:35:56.856Z,13.70
2019-03-21T01:38:28.354Z,13.07
2019-03-21T01:40:59.942Z,13.83
2019-03-21T01:43:31.568Z,12.20
2019-03-21T01:46:03.595Z,12.20
2019-03-21T01:48:35.148Z,12.57
2019-03-21T01:51:06.662Z,14.20
2019-03-21T01:53:38.121Z,14.40
2019-03-21T01:56:09.641Z,12.80
2019-03-21T01:58:42.351Z,13.20
2019-03-21T02:01:13.957Z,13.03
2019-03-21T02:03:45.388Z,12.20
2019-03-21T02:06:16.992Z,12.67
2019-03-21T02:08:48.454Z,11.23
2019-03-21T02:11:20.931Z,11.37
2019-03-21T02:13:52.483Z,12.17
2019-03-21T02:16:25.154Z,11.20
2019-03-21T02:18:56.619Z,12.03
2019-03-21T02:21:28.264Z,11.27
2019-03-21T02:23:59.716Z,11.73
2019-03-21T02:26:31.395Z,12.40
2019-03-21T02:29:02.929Z,11.93
2019-03-21T02:31:34.481Z,10.70
2019-03-21T02:34:06.339Z,11.00
2019-03-21T02:36:37.933Z,11.73
2019-03-21T02:39:09.448Z,11.67
2019-03-21T02:41:41.235Z,13.23
2019-03-21T02:44:12.882Z,11.03
2019-03-21T02:46:44.674Z,10.87
2019-03-21T02:49:16.121Z,11.47
2019-03-21T02:51:47.774Z,10.60
2019-03-21T02:54:19.203Z,10.90
2019-03-21T02:56:52.379Z,10.53
2019-03-21T02:59:23.926Z,10.37
2019-03-21T03:01:55.505Z,10.73
2019-03-21T03:04:26.927Z,10.67
2019-03-21T03:06:59.820Z,11.03
2019-03-21T03:09:33.049Z,10.67
2019-03-21T03:12:04.911Z,11.00
2019-03-21T03:14:36.450Z,10.87
2019-03-21T03:17:08.190Z,10.87
2019-03-21T03:19:39.725Z,10.03
2019-03-21T03:22:11.314Z,10.83
2019-03-21T03:24:42.856Z,10.80
2019-03-21T03:27:14.457Z,10.37
2019-03-21T03:29:45.948Z,10.13
2019-03-21T03:32:17.528Z,10.47
2019-03-21T03:34:49.528Z,11.57
2019-03-21T03:37:21.302Z,9.63
2019-03-21T03:39:53.262Z,11.10
2019-03-21T03:42:24.828Z,10.73
2019-03-21T03:44:56.285Z,10.53
2019-03-21T03:47:27.756Z,9.57
2019-03-21T03:49:59.214Z,10.00
2019-03-21T03:52:31.918Z,9.30
2019-03-21T03:55:03.662Z,9.00
2019-03-21T03:57:36.437Z,10.17
2019-03-21T04:00:09.314Z,9.73
2019-03-21T04:02:42.089Z,10.00
2019-03-21T04:05:13.718Z,9.97
2019-03-21T04:07:45.323Z,10.73
2019-03-21T04:10:22.488Z,11.10
2019-03-21T04:12:54.045Z,10.37
2019-03-21T04:15:25.860Z,11.57
2019-03-21T04:17:57.395Z,9.77
2019-03-21T04:20:30.707Z,10.50
2019-03-21T04:23:03.621Z,10.93
2019-03-21T04:25:58.813Z,10.40
2019-03-21T04:28:31.044Z,10.03
2019-03-21T04:31:03.216Z,9.90
2019-03-21T04:33:35.450Z,10.97
2019-03-21T04:36:07.291Z,10.50
2019-03-21T04:38:38.894Z,11.67
2019-03-21T04:41:11.038Z,10.93
2019-03-21T04:43:42.765Z,10.83
2019-03-21T04:46:14.424Z,10.27
2019-03-21T04:48:45.869Z,10.57
2019-03-21T04:51:17.810Z,10.63
2019-03-21T04:53:49.409Z,10.20
2019-03-21T04:56:20.884Z,10.80
2019-03-21T04:58:52.397Z,10.67
2019-03-21T05:01:23.886Z,11.50
2019-03-21T05:03:55.458Z,10.37
2019-03-21T05:06:26.989Z,10.37
2019-03-21T05:08:58.619Z,11.73
2019-03-21T05:11:30.811Z,11.27
2019-03-21T05:14:02.590Z,11.10
2019-03-21T05:16:34.158Z,11.90
2019-03-21T05:19:07.251Z,10.73
2019-03-21T05:21:38.887Z,11.20
2019-03-21T05:24:11.046Z,16.53
2019-03-21T05:26:42.801Z,13.60
2019-03-21T05:29:15.430Z,13.40
2019-03-21T05:31:46.900Z,12.43
2019-03-21T05:34:18.464Z,13.43
2019-03-21T05:36:50.720Z,14.47
2019-03-21T05:39:22.444Z,13.73
2019-03-21T05:41:53.946Z,15.20
2019-03-21T05:44:30.925Z,15.80
2019-03-21T05:47:03.768Z,14.80
2019-03-21T05:49:35.260Z,15.03
2019-03-21T05:52:08.273Z,17.90
2019-03-21T05:54:41.159Z,14.13
2019-03-21T05:57:12.861Z,14.77
2019-03-21T05:59:44.440Z,14.17
2019-03-21T06:02:16.552Z,15.60
2019-03-21T06:04:48.864Z,13.43
2019-03-21T06:07:39.686Z,15.30
2019-03-21T06:10:13.277Z,13.43
2019-03-21T06:12:43.450Z,13.07
2019-03-21T06:15:17.611Z,15.00
2019-03-21T06:18:09.475Z,13.20
2019-03-21T06:21:04.309Z,12.10
2019-03-21T06:23:50.310Z,11.20
2019-03-21T06:26:54.784Z,11.37
2019-03-21T06:29:26.844Z,10.20
2019-03-21T06:31:58.329Z,11.20
2019-03-21T06:34:30.416Z,12.57
2019-03-21T06:37:02.110Z,10.67
2019-03-21T06:39:34.229Z,9.87
2019-03-21T06:42:06.439Z,10.47
2019-03-21T06:44:38.607Z,11.30
2019-03-21T06:47:11.406Z,9.20
2019-03-21T06:49:43.574Z,11.13
2019-03-21T06:52:15.152Z,11.80
2019-03-21T06:54:47.272Z,9.93
2019-03-21T06:57:19.621Z,9.63
2019-03-21T06:59:51.256Z,9.23
2019-03-21T07:02:23.948Z,11.13
2019-03-21T07:04:55.981Z,8.10
2019-03-21T07:07:27.784Z,9.13
2019-03-21T07:09:59.903Z,8.53
2019-03-21T07:12:32.270Z,8.97
2019-03-21T07:15:04.552Z,9.57
2019-03-21T07:17:36.909Z,9.47
2019-03-21T07:20:10.175Z,9.90
2019-03-21T07:22:42.561Z,8.90
2019-03-21T07:25:14.740Z,7.60
2019-03-21T07:27:46.836Z,7.70
2019-03-21T07:30:19.102Z,6.87
2019-03-21T07:32:51.366Z,8.83
2019-03-21T07:35:24.434Z,8.43
2019-03-21T07:37:56.039Z,6.87
2019-03-21T07:40:28.096Z,6.47
2019-03-21T07:43:00.193Z,6.93
2019-03-21T07:45:32.416Z,6.67
2019-03-21T07:48:05.364Z,6.20
2019-03-21T07:50:37.066Z,6.80
2019-03-21T07:53:09.338Z,5.40
2019-03-21T07:55:41.570Z,6.17
2019-03-21T07:58:14.131Z,5.93
2019-03-21T08:00:46.176Z,5.70
2019-03-21T08:03:18.489Z,6.30
2019-03-21T08:05:50.682Z,6.10
2019-03-21T08:08:23.004Z,5.77
2019-03-21T08:10:55.529Z,6.10
2019-03-21T08:13:27.729Z,6.17
2019-03-21T08:16:01.283Z,5.27
2019-03-21T08:18:33.545Z,4.07
2019-03-21T08:21:05.545Z,4.60
2019-03-21T08:23:38.306Z,5.60
2019-03-21T08:26:10.539Z,4.20
2019-03-21T08:28:42.849Z,5.80
2019-03-21T08:31:18.638Z,4.60
2019-03-21T08:33:52.003Z,6.70
2019-03-21T08:36:24.332Z,6.40
2019-03-21T08:38:56.807Z,6.33
2019-03-21T08:41:29.437Z,6.77
2019-03-21T08:44:02.173Z,6.67
2019-03-21T08:46:34.360Z,7.00
2019-03-21T08:49:06.601Z,6.63
2019-03-21T08:51:39.323Z,6.40
2019-03-21T08:54:11.371Z,6.33
2019-03-21T08:56:43.555Z,6.90
2019-03-21T08:59:19.903Z,6.60
2019-03-21T09:01:52.618Z,7.47
2019-03-21T09:04:25.229Z,6.73
2019-03-21T09:07:00.852Z,7.30
2019-03-21T09:09:35.616Z,7.23
2019-03-21T09:12:08.344Z,6.37
2019-03-21T09:14:41.107Z,7.77
2019-03-21T09:17:13.756Z,8.07
2019-03-21T09:19:46.047Z,7.93
2019-03-21T09:22:18.197Z,7.67
2019-03-21T09:24:50.427Z,7.30
2019-03-21T09:27:22.561Z,7.33
2019-03-21T09:29:54.348Z,7.60
2019-03-21T09:32:26.494Z,7.53
2019-03-21T09:34:58.873Z,7.33
2019-03-21T09:37:31.240Z,8.20
2019-03-21T09:40:03.453Z,9.77
2019-03-21T09:42:35.005Z,8.20
2019-03-21T09:45:09.215Z,9.10
2019-03-21T09:47:41.446Z,7.60
2019-03-21T09:50:17.134Z,7.13
2019-03-21T09:52:49.399Z,8.17
2019-03-21T09:55:21.759Z,7.30
2019-03-21T09:57:54.301Z,6.83
2019-03-21T10:00:34.097Z,6.83
2019-03-21T10:03:06.422Z,6.23
2019-03-21T10:05:38.604Z,6.90
2019-03-21T10:08:10.996Z,7.13
2019-03-21T10:10:43.240Z,6.77
2019-03-21T10:13:15.355Z,7.13
2019-03-21T10:15:47.592Z,7.10
2019-03-21T10:18:19.452Z,7.23
2019-03-21T10:20:51.292Z,7.70
2019-03-21T10:23:23.407Z,7.27
2019-03-21T10:25:55.119Z,8.47
2019-03-21T10:28:26.883Z,8.50
2019-03-21T10:30:59.079Z,7.90
2019-03-21T10:33:30.822Z,9.77
2019-03-21T10:36:02.884Z,9.67
2019-03-21T10:38:34.523Z,8.53
2019-03-21T10:41:06.660Z,9.63
2019-03-21T10:43:38.881Z,10.27
2019-03-21T10:46:11.200Z,11.47
2019-03-21T10:48:43.458Z,10.70
2019-03-21T10:51:15.710Z,9.23
2019-03-21T10:53:47.802Z,11.37
2019-03-21T10:56:20.562Z,9.03
2019-03-21T10:58:52.773Z,8.47
2019-03-21T11:01:25.033Z,9.87
2019-03-21T11:03:57.145Z,8.90
2019-03-21T11:06:29.551Z,9.80
2019-03-21T11:09:01.744Z,10.20
2019-03-21T11:11:35.554Z,9.43
2019-03-21T11:14:07.353Z,8.53
2019-03-21T11:16:39.040Z,9.87
2019-03-21T11:19:11.227Z,9.43
2019-03-21T11:21:44.459Z,8.70
2019-03-21T11:24:17.751Z,10.37
2019-03-21T11:26:50.686Z,9.90
2019-03-21T11:29:22.738Z,9.63
2019-03-21T11:31:54.741Z,8.03
2019-03-21T11:34:26.918Z,9.73
2019-03-21T11:37:01.850Z,10.00
2019-03-21T11:39:34.069Z,8.93
2019-03-21T11:42:07.002Z,8.57
2019-03-21T11:44:39.649Z,8.80
2019-03-21T11:47:11.876Z,10.07
2019-03-21T11:49:44.039Z,9.10
2019-03-21T11:52:18.384Z,8.97
2019-03-21T11:54:50.071Z,8.90
2019-03-21T11:57:22.386Z,9.43
2019-03-21T11:59:54.517Z,10.07
2019-03-21T12:02:27.615Z,9.50
2019-03-21T12:04:59.692Z,10.50
2019-03-21T12:07:31.895Z,12.27
2019-03-21T12:10:03.888Z,11.43
2019-03-21T12:12:36.608Z,11.33
2019-03-21T12:15:08.576Z,10.63
2019-03-21T12:17:40.891Z,12.77
2019-03-21T12:20:13.397Z,12.90
2019-03-21T12:22:48.434Z,13.07
2019-03-21T12:25:20.507Z,13.10
2019-03-21T12:27:52.734Z,13.77
2019-03-21T12:30:32.485Z,14.47
2019-03-21T12:33:04.244Z,12.63
2019-03-21T12:35:36.326Z,15.93
2019-03-21T12:38:08.688Z,16.30
2019-03-21T12:40:40.991Z,15.20
2019-03-21T12:43:13.162Z,17.13
2019-03-21T12:45:45.637Z,20.50
2019-03-21T12:48:18.010Z,20.03
2019-03-21T12:50:49.779Z,18.60
2019-03-21T12:53:21.914Z,18.20
2019-03-21T12:55:53.997Z,24.00
2019-03-21T12:58:26.275Z,23.13
2019-03-21T13:00:58.565Z,22.60
2019-03-21T13:03:30.831Z,21.53
2019-03-21T13:06:03.049Z,20.63
2019-03-21T13:08:37.117Z,21.80
2019-03-21T13:11:09.679Z,22.87
2019-03-21T13:13:41.312Z,24.00
2019-03-21T13:16:13.248Z,23.00
2019-03-21T13:18:45.051Z,21.97
2019-03-21T13:21:17.137Z,22.30
2019-03-21T13:23:49.198Z,20.57
2019-03-21T13:26:21.382Z,21.07
2019-03-21T13:28:53.637Z,22.03
2019-03-21T13:31:25.778Z,20.70
2019-03-21T13:33:58.257Z,19.67
2019-03-21T13:36:30.477Z,18.57
2019-03-21T13:39:04.630Z,19.80
2019-03-21T13:41:37.015Z,18.13
2019-03-21T13:44:08.646Z,20.00
2019-03-21T13:46:40.742Z,19.70
2019-03-21T13:49:12.980Z,20.10
2019-03-21T13:51:44.936Z,15.70
2019-03-21T13:54:17.021Z,18.43
2019-03-21T13:56:48.675Z,18.73
2019-03-21T13:59:20.845Z,19.10
2019-03-21T14:01:52.347Z,17.03
2019-03-21T14:04:24.570Z,20.47
2019-03-21T14:06:56.718Z,18.97
2019-03-21T14:09:28.367Z,18.90
2019-03-21T14:11:59.884Z,19.07
2019-03-21T14:14:31.925Z,22.30
2019-03-21T14:17:03.665Z,22.40
2019-03-21T14:19:35.376Z,21.90
2019-03-21T14:22:07.552Z,21.57
2019-03-21T14:24:39.740Z,22.87
2019-03-21T14:27:12.356Z,23.40
2019-03-21T14:29:44.152Z,23.67
2019-03-21T14:32:16.024Z,22.40
2019-03-21T14:34:48.281Z,23.20
2019-03-21T14:37:19.860Z,22.70
2019-03-21T14:39:52.594Z,23.10
2019-03-21T14:42:24.870Z,22.93
2019-03-21T14:44:57.105Z,21.60
2019-03-21T14:47:36.019Z,21.57
2019-03-21T14:50:02.005Z,22.10
2019-03-21T14:52:34.138Z,19.13
2019-03-21T14:55:06.994Z,22.03
2019-03-21T14:57:38.562Z,22.03
2019-03-21T15:00:12.394Z,21.73
2019-03-21T15:02:44.436Z,20.97
2019-03-21T15:05:16.917Z,20.60
2019-03-21T15:07:48.617Z,20.57
2019-03-21T15:10:20.766Z,21.40
2019-03-21T15:12:53.015Z,21.73
2019-03-21T15:15:25.230Z,24.07
2019-03-21T15:17:59.081Z,24.07
2019-03-21T15:20:32.345Z,26.90
2019-03-21T15:23:05.255Z,24.07
2019-03-21T15:25:37.585Z,25.20
2019-03-21T15:28:09.664Z,25.30
2019-03-21T15:30:41.438Z,25.70
2019-03-21T15:33:13.584Z,26.97
2019-03-21T15:35:45.601Z,27.77
2019-03-21T15:38:17.786Z,25.47
2019-03-21T15:40:49.961Z,29.57
2019-03-21T15:43:21.975Z,29.30
2019-03-21T15:45:57.366Z,30.17
2019-03-21T15:48:29.032Z,27.67
2019-03-21T15:51:04.883Z,28.23
2019-03-21T15:53:34.949Z,29.33
2019-03-21T15:56:07.359Z,25.10
2019-03-21T15:58:40.243Z,26.77
2019-03-21T16:01:12.908Z,28.53
2019-03-21T16:03:45.835Z,28.57
2019-03-21T16:06:18.016Z,28.60
2019-03-21T16:08:51.176Z,30.43
2019-03-21T16:11:23.117Z,28.37
2019-03-21T16:13:56.137Z,30.37
2019-03-21T16:16:31.109Z,28.10
2019-03-21T16:19:03.776Z,28.40
2019-03-21T16:21:35.935Z,28.80
2019-03-21T16:24:08.124Z,28.87
2019-03-21T16:26:40.280Z,27.33
2019-03-21T16:29:12.492Z,27.33
2019-03-21T16:31:44.748Z,28.33
2019-03-21T16:34:16.485Z,24.20
2019-03-21T16:36:48.137Z,30.47
2019-03-21T16:39:22.923Z,30.33
2019-03-21T16:42:00.094Z,26.90
2019-03-21T16:44:31.948Z,27.57
2019-03-21T16:47:03.441Z,25.27
2019-03-21T16:49:34.948Z,28.13
2019-03-21T16:52:38.130Z,24.47
2019-03-21T16:55:42.652Z,24.53
2019-03-21T16:58:45.627Z,27.77
2019-03-21T17:01:44.211Z,26.43
2019-03-21T17:04:39.660Z,26.80
2019-03-21T17:07:47.269Z,28.40
2019-03-21T17:10:47.967Z,26.37
2019-03-21T17:13:51.244Z,27.73
2019-03-21T17:16:49.225Z,25.63
2019-03-21T17:19:58.969Z,30.77
2019-03-21T17:23:00.556Z,34.30
2019-03-21T17:26:01.174Z,31.47
2019-03-21T17:29:01.776Z,32.47
2019-03-21T17:31:57.753Z,29.93
2019-03-21T17:34:57.223Z,28.07
2019-03-21T17:37:59.740Z,30.53
2019-03-21T17:41:02.884Z,29.43
2019-03-21T17:44:03.270Z,27.93
2019-03-21T17:47:10.982Z,33.40
2019-03-21T17:50:10.889Z,28.27
2019-03-21T17:53:12.993Z,30.73
2019-03-21T17:56:09.746Z,28.93
2019-03-21T17:59:10.915Z,28.10
2019-03-21T18:02:05.524Z,31.87
2019-03-21T18:04:55.590Z,29.27
2019-03-21T18:08:04.993Z,33.13
2019-03-21T18:11:23.092Z,33.57
2019-03-21T18:14:27.564Z,31.70
2019-03-21T18:17:23.228Z,29.03
2019-03-21T18:20:21.970Z,31.10
2019-03-21T18:23:21.784Z,29.93
2019-03-21T18:26:18.695Z,27.77
2019-03-21T18:29:16.403Z,31.30
2019-03-21T18:31:50.402Z,30.23
2019-03-21T18:34:22.109Z,31.73
2019-03-21T18:36:53.927Z,29.37
2019-03-21T18:39:25.543Z,30.30
2019-03-21T18:41:57.251Z,30.23
2019-03-21T18:44:29.864Z,28.53
2019-03-21T18:47:01.567Z,29.90
2019-03-21T18:49:33.602Z,30.47
2019-03-21T18:52:05.586Z,32.40
2019-03-21T18:54:37.232Z,32.70
2019-03-21T18:57:08.749Z,30.73
2019-03-21T18:59:40.855Z,31.53
2019-03-21T19:02:13.237Z,34.43
2019-03-21T19:04:44.911Z,33.93
2019-03-21T19:07:16.746Z,32.90
2019-03-21T19:09:48.347Z,35.60
2019-03-21T19:12:20.419Z,36.10
2019-03-21T19:14:52.201Z,38.70
2019-03-21T19:17:23.797Z,38.80
2019-03-21T19:19:55.989Z,36.63
2019-03-21T19:22:28.163Z,39.27
2019-03-21T19:25:00.400Z,43.03
2019-03-21T19:27:32.171Z,35.13
2019-03-21T19:30:03.946Z,35.87
2019-03-21T19:32:35.699Z,40.50
2019-03-21T19:35:08.408Z,37.43
2019-03-21T19:37:40.053Z,38.60
2019-03-21T19:40:12.920Z,42.13
2019-03-21T19:42:44.768Z,40.93
2019-03-21T19:45:17.462Z,36.90
2019-03-21T19:47:49.753Z,33.37
2019-03-21T19:50:22.651Z,33.63
2019-03-21T19:52:55.010Z,33.67
2019-03-21T19:55:31.078Z,34.30
2019-03-21T19:58:00.757Z,33.07
2019-03-21T20:00:32.464Z,25.43
2019-03-21T20:03:04.373Z,29.47
2019-03-21T20:05:36.584Z,31.00
2019-03-21T20:08:08.730Z,28.53
2019-03-21T20:10:41.044Z,21.93
2019-03-21T20:13:13.383Z,27.10
2019-03-21T20:15:45.917Z,26.97
2019-03-21T20:18:18.243Z,30.53
2019-03-21T20:20:50.464Z,34.60
2019-03-21T20:23:22.899Z,26.90
2019-03-21T20:25:55.429Z,34.53
2019-03-21T20:28:27.171Z,29.00
2019-03-21T20:30:58.857Z,36.53
2019-03-21T20:33:31.055Z,35.70
2019-03-21T20:36:02.771Z,29.47
2019-03-21T20:38:34.726Z,36.60
2019-03-21T20:41:07.136Z,30.73
2019-03-21T20:43:39.386Z,25.67
2019-03-21T20:46:11.647Z,27.80
2019-03-21T20:48:41.052Z,31.53
2019-03-21T20:51:13.270Z,26.57
2019-03-21T20:53:46.526Z,28.17
2019-03-21T20:56:19.391Z,27.40
2019-03-21T20:58:53.498Z,27.90
2019-03-21T21:01:24.286Z,26.57
2019-03-21T21:03:56.061Z,23.37
2019-03-21T21:06:27.980Z,24.33
2019-03-21T21:08:59.518Z,26.13
2019-03-21T21:11:31.185Z,24.03
2019-03-21T21:14:04.376Z,27.47
2019-03-21T21:16:36.208Z,23.70
2019-03-21T21:19:08.367Z,28.23
2019-03-21T21:21:40.639Z,27.33
2019-03-21T21:24:12.548Z,27.03
2019-03-21T21:26:44.280Z,26.93
2019-03-21T21:29:15.749Z,30.40
2019-03-21T21:31:47.379Z,27.27
2019-03-21T21:34:18.859Z,28.67
2019-03-21T21:36:50.595Z,29.73
2019-03-21T21:39:25.097Z,32.83
2019-03-21T21:41:56.797Z,27.73
2019-03-21T21:44:28.557Z,33.23
2019-03-21T21:47:00.247Z,26.97
2019-03-21T21:49:34.769Z,28.57
2019-03-21T21:52:06.446Z,27.70
2019-03-21T21:54:38.517Z,30.80
2019-03-21T21:57:10.837Z,29.60
2019-03-21T21:59:42.467Z,31.93
2019-03-21T22:02:14.334Z,24.13
2019-03-21T22:04:47.005Z,31.70
2019-03-21T22:07:18.521Z,29.50
2019-03-21T22:09:50.520Z,35.13
2019-03-21T22:12:22.276Z,30.97
2019-03-21T22:14:53.913Z,30.93
2019-03-21T22:17:26.168Z,31.77
2019-03-21T22:19:58.341Z,33.67
2019-03-21T22:22:30.231Z,32.67
2019-03-21T22:25:01.736Z,31.70
2019-03-21T22:27:33.366Z,32.10
2019-03-21T22:30:05.125Z,32.63
2019-03-21T22:32:36.859Z,29.50
2019-03-21T22:35:08.765Z,34.70
2019-03-21T22:37:40.464Z,31.43
2019-03-21T22:40:12.137Z,28.90
2019-03-21T22:42:43.922Z,36.80
2019-03-21T22:45:15.585Z,34.57
2019-03-21T22:47:50.173Z,28.37
2019-03-21T22:50:20.495Z,36.27
2019-03-21T22:52:52.054Z,33.03
2019-03-21T22:55:23.597Z,33.10
2019-03-21T22:57:55.204Z,33.70
2019-03-21T23:00:34.978Z,37.00
2019-03-21T23:03:08.349Z,36.57
2019-03-21T23:05:40.736Z,36.53
2019-03-21T23:08:12.812Z,32.47
2019-03-21T23:10:45.226Z,37.47
2019-03-21T23:13:17.192Z,34.47
2019-03-21T23:15:48.829Z,37.50
2019-03-21T23:18:20.536Z,29.33
2019-03-21T23:20:52.578Z,34.40
2019-03-21T23:23:24.813Z,38.60
2019-03-21T23:25:58.039Z,34.13
2019-03-21T23:28:29.912Z,30.67
2019-03-21T23:31:01.754Z,32.97
2019-03-21T23:33:33.353Z,29.07
2019-03-21T23:36:05.166Z,36.37
2019-03-21T23:38:36.717Z,25.53
2019-03-21T23:41:08.450Z,28.73
2019-03-21T23:43:40.410Z,29.17
2019-03-21T23:46:12.626Z,28.83
2019-03-21T23:48:44.888Z,25.67
2019-03-21T23:51:17.130Z,24.67
2019-03-21T23:53:48.917Z,26.30
2019-03-21T23:56:20.342Z,26.13
2019-03-21T23:58:51.971Z,24.50
